Time;durP1;ratioP1;P1;durP2;ratioP2;P2;SDS_P1;SDS_P2;PMS_P1;PMS_P2;Temp;Humidity;BMP_temperature;BMP_pressure;BME280_temperature;BME280_humidity;BME280_pressure;Samples;Min_cycle;Max_cycle;Signal;HPM_P1;HPM_P2
2023/07/13 00:01:46;;;;;;;1.95;0.80;;;26.60;42.00;;;;;;6147541;22;87340;-89
2023/07/13 00:04:12;;;;;;;1.33;0.85;;;26.60;42.00;;;;;;6153493;22;87930;-89
2023/07/13 00:06:37;;;;;;;1.17;1.00;;;26.60;42.00;;;;;;6146200;22;87185;-88
2023/07/13 00:09:03;;;;;;;1.50;0.70;;;26.60;42.20;;;;;;6147186;22;88829;-88
2023/07/13 00:11:29;;;;;;;2.75;1.30;;;26.60;42.20;;;;;;6151380;22;88559;-88
2023/07/13 00:13:55;;;;;;;1.10;0.90;;;26.70;42.40;;;;;;6147829;22;87256;-89
2023/07/13 00:16:20;;;;;;;1.30;0.90;;;26.60;42.30;;;;;;6117770;22;89155;-88
2023/07/13 00:18:47;;;;;;;0.95;0.70;;;26.70;42.40;;;;;;6118892;22;90359;-88
2023/07/13 00:21:13;;;;;;;2.10;1.10;;;26.60;42.10;;;;;;6119074;22;88230;-89
2023/07/13 00:23:41;;;;;;;1.23;0.75;;;26.60;42.40;;;;;;6123186;22;87342;-89
2023/07/13 00:26:09;;;;;;;1.08;0.80;;;26.70;42.50;;;;;;6120915;22;89471;-88
2023/07/13 00:28:35;;;;;;;;;;;26.60;42.40;;;;;;6147592;22;86851;-88
2023/07/13 00:31:01;;;;;;;1.33;0.85;;;26.70;42.60;;;;;;6147942;22;87603;-89
2023/07/13 00:33:28;;;;;;;3.30;1.08;;;26.70;42.50;;;;;;6118847;22;88584;-88
2023/07/13 00:35:55;;;;;;;1.60;0.90;;;26.60;42.50;;;;;;6151494;22;87749;-89
2023/07/13 00:38:22;;;;;;;1.15;1.00;;;26.70;42.80;;;;;;6147203;22;87509;-88
2023/07/13 00:40:48;;;;;;;3.15;1.05;;;26.70;42.70;;;;;;6119001;22;89570;-88
2023/07/13 00:43:17;;;;;;;1.55;0.93;;;26.70;42.70;;;;;;6119512;22;93086;-89
2023/07/13 00:45:42;;;;;;;1.95;1.27;;;26.60;42.70;;;;;;6121018;22;89138;-88
2023/07/13 00:48:09;;;;;;;1.65;0.90;;;26.60;42.70;;;;;;6145955;22;88366;-88
2023/07/13 00:50:34;;;;;;;1.08;0.80;;;26.60;42.90;;;;;;6121979;22;90662;-88
2023/07/13 00:53:00;;;;;;;1.50;1.10;;;26.60;42.70;;;;;;6148744;22;87304;-88
2023/07/13 00:55:27;;;;;;;1.63;0.93;;;26.60;42.80;;;;;;6122858;22;89240;-88
2023/07/13 00:57:52;;;;;;;1.95;1.05;;;26.70;42.90;;;;;;6146091;22;88836;-88
2023/07/13 01:00:20;;;;;;;1.55;1.10;;;26.60;42.90;;;;;;6146110;22;88567;-88
2023/07/13 01:02:47;;;;;;;1.97;1.00;;;26.60;42.60;;;;;;6146403;22;87985;-88
2023/07/13 01:05:16;;;;;;;1.05;0.88;;;26.60;42.80;;;;;;6146819;22;87621;-88
2023/07/13 01:07:44;;;;;;;1.50;1.00;;;26.60;42.90;;;;;;6117003;22;90582;-88
2023/07/13 01:10:10;;;;;;;1.17;0.82;;;26.60;42.80;;;;;;6153919;22;87837;-89
2023/07/13 01:12:36;;;;;;;1.42;0.85;;;26.60;42.80;;;;;;6149658;22;87697;-89
2023/07/13 01:15:03;;;;;;;1.92;1.00;;;26.60;42.70;;;;;;6119671;22;87361;-88
2023/07/13 01:17:32;;;;;;;1.45;0.73;;;26.60;42.90;;;;;;6118570;22;90544;-89
2023/07/13 01:19:59;;;;;;;1.58;0.73;;;26.60;42.90;;;;;;6146942;22;87113;-88
2023/07/13 01:22:26;;;;;;;1.67;1.02;;;26.60;42.80;;;;;;6146262;22;88393;-86
2023/07/13 01:24:53;;;;;;;1.40;0.90;;;26.60;43.10;;;;;;6146368;22;87388;-88
2023/07/13 01:27:24;;;;;;;1.27;0.93;;;26.60;43.00;;;;;;6146432;22;88055;-89
2023/07/13 01:29:52;;;;;;;1.17;0.82;;;26.60;43.10;;;;;;6118703;22;90128;-89
2023/07/13 01:32:23;;;;;;;1.15;0.73;;;26.60;43.10;;;;;;6118067;22;87517;-88
2023/07/13 01:34:56;;;;;;;0.95;0.70;;;26.60;43.20;;;;;;6118338;22;89370;-86
2023/07/13 01:37:23;;;;;;;1.02;0.80;;;26.60;43.30;;;;;;6147596;22;87669;-88
2023/07/13 01:39:49;;;;;;;1.70;0.80;;;26.60;43.30;;;;;;6148117;22;87419;-89
2023/07/13 01:42:14;;;;;;;1.63;0.88;;;26.60;43.30;;;;;;6147474;22;87731;-88
2023/07/13 01:44:40;;;;;;;1.90;0.85;;;26.60;43.30;;;;;;6120334;22;88423;-89
2023/07/13 01:47:06;;;;;;;1.65;0.80;;;26.50;43.40;;;;;;6146938;22;89407;-89
2023/07/13 01:49:31;;;;;;;1.10;0.75;;;26.60;43.40;;;;;;6147493;22;88960;-87
2023/07/13 01:51:57;;;;;;;1.40;1.10;;;26.50;43.30;;;;;;6121563;22;86803;-88
2023/07/13 01:54:23;;;;;;;1.00;0.85;;;26.60;43.50;;;;;;6122667;22;89235;-88
2023/07/13 01:56:49;;;;;;;1.15;0.90;;;26.50;43.40;;;;;;6120300;22;90687;-89
2023/07/13 01:59:14;;;;;;;2.50;1.00;;;26.60;43.50;;;;;;6151391;22;87940;-88
2023/07/13 02:01:40;;;;;;;1.40;0.70;;;26.50;43.40;;;;;;6146698;22;87077;-88
2023/07/13 02:04:05;;;;;;;1.42;0.85;;;26.50;43.60;;;;;;6149127;22;87068;-89
2023/07/13 02:06:31;;;;;;;1.38;1.02;;;26.50;43.50;;;;;;6119433;22;89464;-89
2023/07/13 02:08:58;;;;;;;2.28;1.02;;;26.50;43.60;;;;;;6146851;22;87860;-89
2023/07/13 02:11:24;;;;;;;0.93;0.77;;;26.50;43.60;;;;;;6119498;22;88207;-88
2023/07/13 02:13:50;;;;;;;1.88;0.80;;;26.50;43.70;;;;;;6146906;22;86783;-88
2023/07/13 02:16:16;;;;;;;0.95;0.70;;;26.50;43.80;;;;;;6121818;22;89238;-89
2023/07/13 02:18:41;;;;;;;2.25;0.95;;;26.50;43.70;;;;;;6118462;22;90224;-88
2023/07/13 02:21:07;;;;;;;1.05;0.80;;;26.50;43.80;;;;;;6148439;22;87202;-88
2023/07/13 02:23:33;;;;;;;1.80;0.90;;;26.50;43.80;;;;;;6120760;22;88710;-89
2023/07/13 02:26:02;;;;;;;1.73;0.93;;;26.50;43.80;;;;;;6118768;22;90865;-88
2023/07/13 02:28:28;;;;;;;1.23;0.90;;;26.50;43.90;;;;;;6118586;22;90051;-89
2023/07/13 02:30:54;;;;;;;2.38;0.80;;;26.50;43.90;;;;;;6119817;22;87328;-89
2023/07/13 02:33:19;;;;;;;1.60;1.02;;;26.50;44.00;;;;;;6118211;22;87828;-89
2023/07/13 02:35:45;;;;;;;1.20;0.70;;;26.50;43.80;;;;;;6119058;22;91653;-88
2023/07/13 02:38:11;;;;;;;1.48;0.80;;;26.50;43.90;;;;;;6118710;22;90965;-87
2023/07/13 02:40:36;;;;;;;0.82;0.70;;;26.50;43.90;;;;;;6148541;22;87150;-88
2023/07/13 02:43:03;;;;;;;0.70;0.70;;;26.40;43.90;;;;;;6146871;22;87331;-88
2023/07/13 02:45:28;;;;;;;1.30;0.90;;;26.40;43.90;;;;;;6120645;22;90748;-88
2023/07/13 02:47:54;;;;;;;1.42;0.93;;;26.40;44.00;;;;;;6150526;22;87329;-89
2023/07/13 02:50:20;;;;;;;0.82;0.80;;;26.40;44.00;;;;;;6120499;22;87322;-89
2023/07/13 02:52:46;;;;;;;2.13;1.00;;;26.40;43.90;;;;;;6148653;22;86579;-89
2023/07/13 02:55:11;;;;;;;1.42;0.85;;;26.40;44.00;;;;;;6119957;22;90789;-89
2023/07/13 02:57:37;;;;;;;1.05;0.77;;;26.40;44.00;;;;;;6153848;22;87126;-88
2023/07/13 03:00:07;;;;;;;2.45;0.85;;;26.40;43.90;;;;;;6147495;22;88291;-89
2023/07/13 03:02:34;;;;;;;0.98;0.85;;;26.40;44.00;;;;;;6149727;22;87071;-89
2023/07/13 03:05:00;;;;;;;1.52;0.80;;;26.30;43.90;;;;;;6120106;22;90171;-89
2023/07/13 03:07:26;;;;;;;1.48;0.95;;;26.30;44.00;;;;;;6147755;22;87714;-89
2023/07/13 03:09:57;;;;;;;2.20;0.95;;;26.30;43.90;;;;;;6146774;22;87218;-89
2023/07/13 03:12:23;;;;;;;1.02;0.80;;;26.30;44.10;;;;;;6146435;22;87776;-89
2023/07/13 03:14:49;;;;;;;1.70;0.80;;;26.30;44.20;;;;;;6119181;22;90947;-88
2023/07/13 03:17:14;;;;;;;1.40;0.90;;;26.30;44.80;;;;;;6148434;22;86955;-88
2023/07/13 03:19:40;;;;;;;1.58;0.90;;;26.40;44.20;;;;;;6119687;22;87296;-88
2023/07/13 03:22:06;;;;;;;1.02;0.80;;;26.30;44.30;;;;;;6148446;22;87626;-89
2023/07/13 03:24:33;;;;;;;1.00;0.80;;;26.30;44.30;;;;;;6119641;22;90807;-87
2023/07/13 03:27:02;;;;;;;1.13;0.85;;;26.30;44.50;;;;;;6145109;22;89097;-89
2023/07/13 03:29:27;;;;;;;1.02;0.70;;;26.30;44.40;;;;;;6121185;22;87582;-88
2023/07/13 03:31:53;;;;;;;1.08;0.80;;;26.30;44.60;;;;;;6146655;22;88263;-88
2023/07/13 03:34:19;;;;;;;1.17;0.80;;;26.30;44.50;;;;;;6145702;22;87946;-89
2023/07/13 03:36:45;;;;;;;1.88;1.00;;;26.30;44.50;;;;;;6153556;22;89623;-89
2023/07/13 03:39:10;;;;;;;1.27;0.90;;;26.30;44.40;;;;;;6148844;22;86768;-88
2023/07/13 03:41:37;;;;;;;1.95;0.80;;;26.30;44.60;;;;;;6129103;22;88962;-89
2023/07/13 03:44:02;;;;;;;1.40;1.10;;;26.20;44.60;;;;;;6120786;22;89714;-89
2023/07/13 03:46:28;;;;;;;1.25;0.82;;;26.30;44.40;;;;;;6122892;22;89744;-88
2023/07/13 03:48:54;;;;;;;0.80;0.60;;;26.30;44.40;;;;;;6118698;22;88334;-88
2023/07/13 03:51:20;;;;;;;0.82;0.70;;;26.20;44.20;;;;;;6119210;22;89305;-87
2023/07/13 03:53:48;;;;;;;0.95;0.77;;;26.30;44.30;;;;;;6120794;22;90643;-89
2023/07/13 03:56:15;;;;;;;1.17;0.82;;;26.20;44.40;;;;;;6120707;22;89425;-89
2023/07/13 03:58:41;;;;;;;0.95;0.80;;;26.20;44.40;;;;;;6147233;22;87530;-89
2023/07/13 04:01:09;;;;;;;1.55;0.82;;;26.20;44.50;;;;;;6118365;22;89095;-88
2023/07/13 04:03:35;;;;;;;1.30;0.98;;;26.20;44.60;;;;;;6118437;22;90398;-89
2023/07/13 04:06:03;;;;;;;1.55;0.85;;;26.20;44.60;;;;;;6120580;22;90514;-89
2023/07/13 04:08:31;;;;;;;0.77;0.70;;;26.20;44.70;;;;;;6147816;22;86938;-90
2023/07/13 04:10:57;;;;;;;1.30;0.80;;;26.20;44.70;;;;;;6118936;22;89446;-89
2023/07/13 04:13:24;;;;;;;1.13;0.98;;;26.20;44.60;;;;;;6147651;22;88402;-89
2023/07/13 04:15:50;;;;;;;1.35;0.70;;;26.20;44.70;;;;;;6118262;22;89791;-89
2023/07/13 04:18:15;;;;;;;1.05;0.68;;;26.20;44.80;;;;;;6120152;22;87737;-88
2023/07/13 04:20:41;;;;;;;0.98;0.88;;;26.20;44.80;;;;;;6120099;22;89813;-89
2023/07/13 04:23:07;;;;;;;1.73;0.85;;;26.20;44.70;;;;;;6119969;22;90661;-88
2023/07/13 04:25:32;;;;;;;1.60;1.00;;;26.20;44.80;;;;;;6120468;22;89421;-89
2023/07/13 04:27:58;;;;;;;0.75;0.70;;;26.20;44.90;;;;;;6120210;22;87639;-89
2023/07/13 04:30:24;;;;;;;1.15;0.70;;;26.20;44.80;;;;;;6148878;22;86875;-88
2023/07/13 04:32:52;;;;;;;0.88;0.70;;;26.20;45.00;;;;;;6118816;22;90694;-88
2023/07/13 04:35:20;;;;;;;0.57;0.57;;;26.20;44.90;;;;;;6120135;22;90199;-89
2023/07/13 04:37:49;;;;;;;1.40;0.80;;;26.20;45.00;;;;;;6118151;22;88995;-89
2023/07/13 04:40:18;;;;;;;1.73;0.80;;;26.20;44.90;;;;;;6118859;22;88646;-89
2023/07/13 04:42:45;;;;;;;1.08;0.82;;;26.20;45.00;;;;;;6121599;22;89641;-89
2023/07/13 04:45:11;;;;;;;1.73;0.93;;;26.20;44.90;;;;;;6118290;22;90351;-89
2023/07/13 04:47:37;;;;;;;2.35;0.80;;;26.20;45.00;;;;;;6121721;22;87485;-88
2023/07/13 04:50:04;;;;;;;1.15;0.65;;;26.20;45.20;;;;;;6151628;22;86849;-89
2023/07/13 04:52:30;;;;;;;1.13;0.70;;;26.20;45.00;;;;;;6123216;22;90270;-88
2023/07/13 04:54:55;;;;;;;1.30;0.90;;;26.20;45.10;;;;;;6120659;22;90287;-88
2023/07/13 04:57:21;;;;;;;1.05;0.90;;;26.20;44.90;;;;;;6119392;22;87534;-88
2023/07/13 04:59:46;;;;;;;1.05;0.65;;;26.20;45.20;;;;;;6147547;22;87716;-88
2023/07/13 05:02:12;;;;;;;1.15;0.85;;;26.20;45.30;;;;;;6121059;22;91742;-88
2023/07/13 05:04:38;;;;;;;1.20;0.90;;;26.20;45.20;;;;;;6147701;22;87683;-89
2023/07/13 05:07:05;;;;;;;1.25;0.70;;;26.10;45.10;;;;;;6147962;22;86889;-88
2023/07/13 05:09:30;;;;;;;1.20;0.60;;;26.20;45.30;;;;;;6147719;22;87352;-89
2023/07/13 05:11:56;;;;;;;0.80;0.77;;;26.20;45.30;;;;;;6147250;22;87674;-88
2023/07/13 05:14:21;;;;;;;1.13;0.85;;;26.10;45.20;;;;;;6146669;22;88637;-88
2023/07/13 05:16:47;;;;;;;1.60;0.80;;;26.10;45.30;;;;;;6146954;22;87618;-88
2023/07/13 05:19:13;;;;;;;1.30;0.93;;;26.10;45.30;;;;;;6153029;22;88014;-88
2023/07/13 05:21:38;;;;;;;1.95;0.70;;;26.10;45.20;;;;;;6147195;22;87358;-89
2023/07/13 05:24:04;;;;;;;1.27;0.93;;;26.10;45.10;;;;;;6120800;22;89963;-88
2023/07/13 05:26:30;;;;;;;1.83;1.00;;;26.10;45.20;;;;;;6120377;22;87978;-88
2023/07/13 05:28:55;;;;;;;1.05;0.73;;;26.10;45.20;;;;;;6146638;22;87466;-89
2023/07/13 05:31:21;;;;;;;0.98;0.80;;;26.10;45.40;;;;;;6147716;22;87623;-88
2023/07/13 05:33:46;;;;;;;0.70;0.70;;;26.10;45.20;;;;;;6145115;22;88212;-88
2023/07/13 05:36:12;;;;;;;1.02;0.90;;;26.10;45.30;;;;;;6118495;22;88126;-89
2023/07/13 05:38:38;;;;;;;2.38;1.13;;;26.10;45.30;;;;;;6148669;22;87506;-88
2023/07/13 05:41:03;;;;;;;0.93;0.80;;;26.10;45.20;;;;;;6145566;22;93810;-88
2023/07/13 05:43:29;;;;;;;1.30;0.80;;;26.10;45.30;;;;;;6149432;22;86435;-88
2023/07/13 05:45:56;;;;;;;1.25;0.80;;;26.10;45.30;;;;;;6122120;22;87307;-88
2023/07/13 05:48:22;;;;;;;0.75;0.60;;;26.10;45.50;;;;;;6120953;22;88845;-88
2023/07/13 05:50:47;;;;;;;0.90;0.60;;;26.10;45.60;;;;;;6119217;22;91638;-87
2023/07/13 05:53:13;;;;;;;0.85;0.70;;;26.10;45.40;;;;;;6147463;22;88245;-88
2023/07/13 05:55:43;;;;;;;1.38;1.02;;;26.10;45.60;;;;;;6119282;22;87534;-88
2023/07/13 05:58:09;;;;;;;2.20;0.90;;;26.10;45.50;;;;;;6121776;22;89108;-88
2023/07/13 06:00:35;;;;;;;0.88;0.70;;;26.10;45.60;;;;;;6146454;22;87919;-88
2023/07/13 06:03:01;;;;;;;1.13;0.80;;;26.10;45.50;;;;;;6148922;22;87624;-87
2023/07/13 06:05:28;;;;;;;1.38;0.98;;;26.10;45.60;;;;;;6148243;22;87428;-88
2023/07/13 06:07:54;;;;;;;1.45;0.88;;;26.10;45.70;;;;;;6119631;22;88262;-88
2023/07/13 06:10:20;;;;;;;2.13;1.10;;;26.10;45.30;;;;;;6120332;22;89903;-88
2023/07/13 06:12:46;;;;;;;1.10;0.88;;;26.10;45.50;;;;;;6146426;22;88212;-87
2023/07/13 06:15:12;;;;;;;1.05;0.75;;;26.10;45.40;;;;;;6146928;22;88856;-88
2023/07/13 06:17:37;;;;;;;1.13;1.00;;;26.10;45.40;;;;;;6147423;22;87937;-87
2023/07/13 06:20:03;;;;;;;1.45;1.00;;;26.10;45.40;;;;;;6144923;22;88364;-88
2023/07/13 06:22:29;;;;;;;1.70;0.80;;;26.10;45.40;;;;;;6145888;22;88289;-88
2023/07/13 06:24:55;;;;;;;1.08;0.60;;;26.10;45.50;;;;;;6147127;22;87458;-88
2023/07/13 06:27:22;;;;;;;1.10;0.93;;;26.10;45.40;;;;;;6144668;22;87826;-88
2023/07/13 06:29:47;;;;;;;1.13;0.85;;;26.10;45.50;;;;;;6118752;22;88508;-87
2023/07/13 06:32:13;;;;;;;0.75;0.70;;;26.10;45.60;;;;;;6120196;22;89358;-88
2023/07/13 06:34:39;;;;;;;0.98;0.88;;;26.10;45.40;;;;;;6120119;22;88110;-88
2023/07/13 06:37:04;;;;;;;2.00;0.88;;;26.10;45.50;;;;;;6145956;22;87330;-90
2023/07/13 06:39:30;;;;;;;4.25;1.63;;;26.10;45.40;;;;;;6116277;22;90261;-86
2023/07/13 06:41:56;;;;;;;8.40;2.03;;;26.10;45.40;;;;;;6143865;22;87551;-87
2023/07/13 06:44:21;;;;;;;9.77;2.30;;;26.10;45.80;;;;;;6146704;22;87613;-85
2023/07/13 06:46:47;;;;;;;5.60;2.10;;;25.90;46.30;;;;;;6144759;22;88179;-86
2023/07/13 06:49:12;;;;;;;4.82;1.92;;;25.80;46.70;;;;;;6143832;22;87474;-85
2023/07/13 06:51:38;;;;;;;9.68;2.10;;;25.80;46.90;;;;;;6144278;22;88268;-85
2023/07/13 06:54:04;;;;;;;12.05;3.63;;;25.90;46.50;;;;;;6144320;22;87831;-85
2023/07/13 06:56:29;;;;;;;13.07;3.58;;;25.90;46.50;;;;;;6145347;22;86665;-84
2023/07/13 06:58:55;;;;;;;10.27;3.53;;;25.80;46.50;;;;;;6144322;22;87894;-86
2023/07/13 07:01:20;;;;;;;9.73;3.47;;;25.80;46.30;;;;;;6143751;22;87805;-84
2023/07/13 07:03:47;;;;;;;14.02;3.67;;;25.80;46.60;;;;;;6117076;22;88888;-83
2023/07/13 07:06:23;;;;;;;11.68;3.53;;;25.80;46.60;;;;;;6117733;22;87633;-83
2023/07/13 07:08:49;;;;;;;7.32;2.90;;;25.70;46.40;;;;;;6144097;22;87726;-84
2023/07/13 07:11:19;;;;;;;8.93;2.88;;;25.70;46.60;;;;;;6146842;22;87388;-83
2023/07/13 07:13:44;;;;;;;10.48;3.13;;;25.80;46.70;;;;;;6145540;22;87407;-83
2023/07/13 07:16:10;;;;;;;5.63;2.50;;;25.70;46.80;;;;;;6144095;22;87315;-84
2023/07/13 07:18:36;;;;;;;9.13;2.50;;;25.70;47.00;;;;;;6143252;22;87955;-82
2023/07/13 07:21:02;;;;;;;9.23;2.72;;;25.80;46.90;;;;;;6144492;22;88365;-82
2023/07/13 07:23:28;;;;;;;6.05;2.42;;;25.80;46.60;;;;;;6144987;22;87580;-81
2023/07/13 07:25:53;;;;;;;6.70;2.45;;;25.70;46.90;;;;;;6142886;22;87527;-83
2023/07/13 07:28:19;;;;;;;8.93;2.70;;;25.80;47.10;;;;;;6143550;22;88078;-80
2023/07/13 07:30:46;;;;;;;9.93;2.50;;;25.70;47.20;;;;;;6144864;22;88363;-84
2023/07/13 07:33:12;;;;;;;8.43;2.65;;;25.80;47.20;;;;;;6142996;22;87716;-85
2023/07/13 07:35:38;;;;;;;9.07;2.28;;;25.90;47.10;;;;;;6145839;22;87330;-81
2023/07/13 07:38:04;;;;;;;6.80;2.50;;;25.80;47.00;;;;;;6143500;22;94255;-83
2023/07/13 07:40:31;;;;;;;7.53;2.60;;;25.80;46.70;;;;;;6144822;22;87878;-82
2023/07/13 07:42:56;;;;;;;10.02;3.20;;;25.70;47.10;;;;;;6143870;22;87787;-82
2023/07/13 07:45:22;;;;;;;9.77;2.60;;;25.70;46.80;;;;;;6145043;22;86908;-83
2023/07/13 07:47:47;;;;;;;10.23;2.25;;;25.80;46.90;;;;;;6143020;22;87349;-82
2023/07/13 07:50:13;;;;;;;6.82;2.28;;;25.70;47.00;;;;;;6145895;22;87763;-82
2023/07/13 07:52:39;;;;;;;5.95;2.05;;;25.80;46.90;;;;;;6143402;22;88174;-83
2023/07/13 07:55:07;;;;;;;10.50;3.17;;;25.90;46.70;;;;;;6144312;22;87367;-82
2023/07/13 07:57:32;;;;;;;7.53;2.60;;;25.80;46.70;;;;;;6143493;22;87791;-82
2023/07/13 07:59:58;;;;;;;8.70;1.90;;;25.80;46.90;;;;;;6143282;22;87683;-82
2023/07/13 08:02:25;;;;;;;6.30;2.30;;;25.70;47.20;;;;;;6146844;22;87560;-82
2023/07/13 08:04:51;;;;;;;9.45;2.20;;;25.70;47.40;;;;;;6143676;22;87530;-83
2023/07/13 08:07:17;;;;;;;10.18;2.45;;;25.70;47.30;;;;;;6145523;22;87602;-82
2023/07/13 08:09:43;;;;;;;6.78;2.30;;;25.90;47.40;;;;;;6146183;22;86619;-83
2023/07/13 08:12:08;;;;;;;9.43;2.05;;;25.90;47.20;;;;;;6145734;22;87987;-82
2023/07/13 08:14:34;;;;;;;23.67;6.63;;;25.80;47.20;;;;;;6147136;22;87461;-86
2023/07/13 08:16:59;;;;;;;370.73;71.20;;;25.80;47.30;;;;;;6145774;22;88218;-87
2023/07/13 08:19:25;;;;;;;294.45;59.10;;;25.90;47.50;;;;;;6144834;22;88046;-82
2023/07/13 08:21:51;;;;;;;119.38;25.67;;;25.90;47.50;;;;;;6145051;22;87328;-82
2023/07/13 08:24:18;;;;;;;105.95;21.25;;;25.90;47.20;;;;;;6144942;22;87302;-82
2023/07/13 08:26:45;;;;;;;107.45;20.42;;;25.90;47.10;;;;;;6144328;22;88083;-82
2023/07/13 08:29:10;;;;;;;88.07;17.30;;;25.90;47.50;;;;;;6146840;22;87851;-83
2023/07/13 08:31:36;;;;;;;74.38;17.88;;;25.90;47.10;;;;;;6148582;22;88049;-82
2023/07/13 08:34:02;;;;;;;53.13;13.57;;;25.90;47.20;;;;;;6144113;22;86811;-84
2023/07/13 08:36:28;;;;;;;43.90;11.98;;;25.90;47.10;;;;;;6143978;22;87479;-83
2023/07/13 08:38:54;;;;;;;35.38;9.32;;;25.80;47.50;;;;;;6144966;22;87220;-82
2023/07/13 08:41:20;;;;;;;32.78;8.27;;;25.80;47.90;;;;;;6146357;22;88261;-81
2023/07/13 08:43:50;;;;;;;34.38;9.00;;;25.80;47.70;;;;;;6143702;22;87404;-80
2023/07/13 08:46:23;;;;;;;28.30;7.65;;;25.90;47.30;;;;;;6145351;22;88153;-82
2023/07/13 08:48:59;;;;;;;29.65;7.88;;;25.90;47.10;;;;;;6116875;22;91180;-82
2023/07/13 08:51:41;;;;;;;23.30;5.97;;;25.90;47.30;;;;;;6145168;22;87220;-82
2023/07/13 08:54:21;;;;;;;24.48;6.25;;;25.90;47.50;;;;;;6144627;22;87501;-81
2023/07/13 08:56:48;;;;;;;25.52;6.25;;;25.90;47.20;;;;;;6145380;22;88095;-83
2023/07/13 08:59:17;;;;;;;17.42;4.72;;;25.90;47.10;;;;;;6119748;22;87523;-82
2023/07/13 09:01:58;;;;;;;;;;;25.90;47.10;;;;;;6146564;22;87604;-82
2023/07/13 09:04:36;;;;;;;16.95;4.45;;;25.90;47.20;;;;;;6145425;22;87097;-83
2023/07/13 09:07:16;;;;;;;14.70;3.60;;;25.90;47.10;;;;;;6144014;22;90397;-83
2023/07/13 09:09:54;;;;;;;12.57;4.00;;;26.00;47.10;;;;;;6119369;22;88831;-82
2023/07/13 09:12:52;;;;;;;15.45;3.83;;;26.00;47.20;;;;;;6145873;22;87212;-87
2023/07/13 09:15:30;;;;;;;13.80;4.10;;;26.00;47.10;;;;;;6146335;22;87790;-81
2023/07/13 09:17:58;;;;;;;;;;;26.10;46.90;;;;;;6118557;22;88138;-82
2023/07/13 09:20:46;;;;;;;10.07;2.97;;;26.30;46.80;;;;;;6149109;22;87453;-85
2023/07/13 09:23:17;;;;;;;10.07;2.90;;;26.30;46.60;;;;;;6145329;22;87220;-85
2023/07/13 09:25:46;;;;;;;10.05;3.00;;;26.40;46.60;;;;;;6119549;22;90820;-85
2023/07/13 09:28:12;;;;;;;;;;;26.40;46.40;;;;;;6119557;22;89227;-87
2023/07/13 09:30:56;;;;;;;8.65;2.97;;;26.30;46.60;;;;;;6151894;22;87975;-86
2023/07/13 09:33:22;;;;;;;11.32;3.08;;;26.60;46.60;;;;;;6147148;22;88351;-85
2023/07/13 09:35:49;;;;;;;9.95;2.58;;;26.70;46.30;;;;;;6146431;22;88833;-82
2023/07/13 09:38:19;;;;;;;14.02;3.70;;;26.60;46.40;;;;;;6146900;22;87419;-84
2023/07/13 09:41:03;;;;;;;7.25;2.67;;;26.60;46.50;;;;;;6144231;22;87327;-88
2023/07/13 09:43:29;;;;;;;10.35;3.03;;;26.60;46.40;;;;;;6113134;22;87510;-83
2023/07/13 09:45:55;;;;;;;9.73;3.08;;;26.60;46.60;;;;;;6140416;22;87549;-84
2023/07/13 09:48:21;;;;;;;8.82;2.65;;;26.60;46.70;;;;;;6112705;22;91505;-84
2023/07/13 09:50:47;;;;;;;8.25;2.78;;;26.60;47.00;;;;;;6113249;22;88790;-91
2023/07/13 09:53:18;;;;;;;9.32;2.75;;;26.60;47.00;;;;;;6143967;22;87392;-83
2023/07/13 09:55:46;;;;;;;8.77;2.90;;;26.70;46.90;;;;;;6141078;22;87674;-84
2023/07/13 09:58:16;;;;;;;12.20;2.72;;;26.70;47.00;;;;;;6139912;22;89568;-84
2023/07/13 10:00:53;;;;;;;8.60;2.35;;;26.70;47.40;;;;;;6141282;22;88753;-85
2023/07/13 10:03:21;;;;;;;8.98;2.72;;;26.70;47.20;;;;;;6140100;22;87530;-84
2023/07/13 10:05:50;;;;;;;;;;;26.80;47.10;;;;;;6141122;22;87354;-84
2023/07/13 10:08:27;;;;;;;9.88;2.85;;;26.80;47.30;;;;;;6143598;22;88152;-86
2023/07/13 10:11:02;;;;;;;10.23;2.53;;;26.80;47.20;;;;;;6113969;22;89208;-83
2023/07/13 10:13:42;;;;;;;6.90;2.42;;;26.70;47.30;;;;;;6140666;22;88235;-84
2023/07/13 10:16:08;;;;;;;6.28;2.30;;;26.70;47.30;;;;;;6140319;22;87198;-85
2023/07/13 10:19:00;;;;;;;7.32;2.40;;;26.70;47.30;;;;;;6139670;22;87777;-84
2023/07/13 10:21:36;;;;;;;6.05;2.28;;;26.70;47.60;;;;;;6142568;22;87266;-85
2023/07/13 10:24:22;;;;;;;7.90;2.38;;;26.70;47.50;;;;;;6145430;22;88350;-86
2023/07/13 10:27:07;;;;;;;8.30;2.42;;;26.70;47.80;;;;;;6117996;22;87916;-86
2023/07/13 10:29:55;;;;;;;7.47;2.33;;;26.80;47.60;;;;;;6143055;22;88786;-86
2023/07/13 10:32:24;;;;;;;5.97;2.33;;;26.80;47.60;;;;;;6147515;22;90258;-86
2023/07/13 10:34:52;;;;;;;3.75;1.92;;;26.80;47.40;;;;;;6143643;22;87412;-87
2023/07/13 10:37:27;;;;;;;6.20;2.37;;;26.90;47.60;;;;;;6145212;22;87418;-87
2023/07/13 10:39:55;;;;;;;5.50;2.35;;;26.90;47.60;;;;;;6143243;22;88381;-87
2023/07/13 10:42:30;;;;;;;7.45;2.40;;;26.90;47.70;;;;;;6147237;22;87488;-87
2023/07/13 10:44:56;;;;;;;8.48;2.55;;;26.80;47.80;;;;;;6146431;22;87373;-88
2023/07/13 10:47:22;;;;;;;5.82;2.00;;;26.90;47.60;;;;;;6146375;22;87221;-86
2023/07/13 10:49:53;;;;;;;8.75;2.13;;;26.90;47.50;;;;;;6142469;22;88998;-86
2023/07/13 10:52:46;;;;;;;6.38;2.10;;;26.80;47.60;;;;;;6146912;22;88414;-87
2023/07/13 10:55:36;;;;;;;6.63;2.47;;;26.90;46.80;;;;;;6144379;22;87502;-87
2023/07/13 10:58:14;;;;;;;8.70;2.28;;;26.90;47.40;;;;;;6149627;22;87554;-89
2023/07/13 11:01:06;;;;;;;7.35;1.65;;;26.90;47.40;;;;;;6119562;22;88060;-87
2023/07/13 11:03:35;;;;;;;7.38;2.22;;;26.70;46.20;;;;;;6143767;22;88661;-85
2023/07/13 11:06:11;;;;;;;;;;;26.60;45.80;;;;;;6146368;22;87567;-85
2023/07/13 11:08:51;;;;;;;5.97;2.15;;;26.50;45.80;;;;;;6148120;22;87013;-85
2023/07/13 11:11:32;;;;;;;5.03;1.70;;;26.50;46.10;;;;;;6144420;22;90704;-85
2023/07/13 11:14:04;;;;;;;4.80;1.70;;;26.50;45.70;;;;;;6114893;22;88465;-83
2023/07/13 11:16:42;;;;;;;2.13;1.17;;;26.40;45.60;;;;;;6114037;22;88183;-83
2023/07/13 11:19:07;;;;;;;9.70;1.93;;;26.40;45.70;;;;;;6142416;22;87414;-87
2023/07/13 11:21:33;;;;;;;4.85;1.50;;;26.50;45.70;;;;;;6142426;22;87980;-85
2023/07/13 11:24:18;;;;;;;4.05;1.95;;;26.50;45.60;;;;;;6141612;22;88035;-88
2023/07/13 11:26:46;;;;;;;6.85;2.00;;;26.40;45.30;;;;;;6138099;22;87842;-84
2023/07/13 11:29:15;;;;;;;10.52;2.05;;;26.50;45.00;;;;;;6117806;22;87891;-85
2023/07/13 11:31:45;;;;;;;8.05;1.88;;;26.50;45.50;;;;;;6144044;22;87556;-81
2023/07/13 11:34:16;;;;;;;2.42;1.50;;;26.50;45.00;;;;;;6148227;22;87275;-80
2023/07/13 11:36:45;;;;;;;7.20;1.60;;;26.50;45.00;;;;;;6145370;22;87323;-80
2023/07/13 11:39:11;;;;;;;10.32;2.10;;;26.60;44.90;;;;;;6142743;22;87436;-81
2023/07/13 11:41:56;;;;;;;7.43;1.75;;;26.60;45.30;;;;;;6140592;22;89050;-83
2023/07/13 11:44:24;;;;;;;4.07;1.85;;;26.60;44.80;;;;;;6139754;22;92075;-82
2023/07/13 11:46:55;;;;;;;9.17;1.83;;;26.60;44.80;;;;;;6140197;22;87535;-82
2023/07/13 11:49:24;;;;;;;9.25;2.00;;;26.60;44.20;;;;;;6141995;22;87606;-83
2023/07/13 11:51:53;;;;;;;;;;;26.60;43.70;;;;;;6114273;22;89515;-83
2023/07/13 11:54:50;;;;;;;18.92;3.97;;;26.60;43.80;;;;;;6143738;22;88033;-82
2023/07/13 11:57:33;;;;;;;19.50;5.55;;;26.50;43.50;;;;;;6141729;22;87398;-82
2023/07/13 12:00:01;;;;;;;21.60;5.55;;;26.50;43.60;;;;;;6141756;22;87482;-82
2023/07/13 12:02:33;;;;;;;12.45;4.68;;;26.60;43.30;;;;;;6141914;22;87755;-83
2023/07/13 12:05:02;;;;;;;11.32;3.20;;;26.60;43.30;;;;;;6137662;22;88077;-82
2023/07/13 12:07:29;;;;;;;;;;;26.50;43.00;;;;;;6140038;22;88488;-83
2023/07/13 12:10:10;;;;;;;13.20;3.10;;;26.50;43.00;;;;;;6143999;22;87429;-82
2023/07/13 12:12:37;;;;;;;12.32;3.35;;;26.50;43.10;;;;;;6140245;22;87793;-85
2023/07/13 12:15:07;;;;;;;11.13;3.28;;;26.50;43.00;;;;;;6138832;22;88063;-83
2023/07/13 12:17:35;;;;;;;8.63;2.78;;;26.50;42.80;;;;;;6138669;22;88145;-83
2023/07/13 12:20:10;;;;;;;15.05;2.72;;;26.60;42.30;;;;;;6138444;22;88139;-83
2023/07/13 12:22:36;;;;;;;9.45;2.25;;;26.60;41.90;;;;;;6140695;22;87784;-83
2023/07/13 12:25:02;;;;;;;5.80;2.20;;;26.60;42.00;;;;;;6142730;22;87615;-86
2023/07/13 12:27:28;;;;;;;5.10;1.75;;;26.60;41.90;;;;;;6114352;22;88062;-83
2023/07/13 12:30:15;;;;;;;8.15;2.08;;;26.60;41.60;;;;;;6115123;22;87270;-85
2023/07/13 12:32:41;;;;;;;10.15;2.25;;;26.60;41.60;;;;;;6114471;22;91119;-85
2023/07/13 12:35:18;;;;;;;4.88;1.50;;;26.60;41.60;;;;;;6138733;22;88151;-83
2023/07/13 12:37:46;;;;;;;6.45;1.77;;;26.60;41.20;;;;;;6141237;22;87070;-83
2023/07/13 12:40:18;;;;;;;4.07;1.53;;;26.60;41.90;;;;;;6142754;22;87325;-83
2023/07/13 12:42:48;;;;;;;4.53;1.63;;;26.60;41.40;;;;;;6142891;22;87681;-83
2023/07/13 12:45:20;;;;;;;2.50;1.38;;;26.70;41.00;;;;;;6115515;22;89539;-83
2023/07/13 12:47:49;;;;;;;5.75;1.42;;;26.70;41.10;;;;;;6113475;22;87272;-83
2023/07/13 12:50:18;;;;;;;6.15;1.88;;;26.70;41.00;;;;;;6141763;22;87093;-83
2023/07/13 12:52:50;;;;;;;4.63;1.52;;;26.70;41.30;;;;;;6141429;22;87696;-83